METAR Data
IDs: Format: Raw Decoded Include TAF

Data at: 0934 UTC 26 Jan 2020

KSUW 260915Z AUTO 25003KT 10SM OVC020 M01/M03 A2991 RMK AO2 T10131035
KSUW 260855Z AUTO 25003KT 10SM OVC020 M01/M03 A2991 RMK AO2 T10121035
KSUW 260835Z AUTO 27003KT 10SM OVC018 M01/M04 A2991 RMK AO2 T10101036
KSUW 260815Z AUTO 26003KT 10SM OVC018 M01/M03 A2991 RMK AO2 T10101035
KSUW 260755Z AUTO 00000KT 10SM OVC018 M01/M03 A2991 RMK AO2 T10101035
KSUW 260735Z AUTO 23003KT 10SM OVC018 M01/M03 A2991 RMK AO2 T10101033
KSUW 260715Z AUTO 25005KT 10SM OVC022 M01/M03 A2991 RMK AO2 T10101033
KSUW 260655Z AUTO 25003KT 10SM OVC022 M01/M03 A2991 RMK AO2 T10101033
KSUW 260635Z AUTO 24004KT 10SM OVC024 M01/M03 A2991 RMK AO2 T10101034
KSUW 260615Z AUTO 24003KT 10SM OVC024 M01/M03 A2991 RMK AO2 T10101032
KSUW 260555Z AUTO 24003KT 10SM OVC024 M01/M03 A2991 RMK AO2 T10101033 10000 21010 400151016
KSUW 260535Z AUTO 24003KT 10SM OVC022 M01/M03 A2992 RMK AO2 T10101033
KSUW 260515Z AUTO 00000KT 10SM OVC018 M01/M03 A2991 RMK AO2 T10101033
KSUW 260455Z AUTO 00000KT 10SM OVC018 M01/M03 A2992 RMK AO2 T10081034
KSUW 260435Z AUTO 00000KT 10SM OVC018 M01/M03 A2992 RMK AO2 T10071035
KSUW 260415Z AUTO 28003KT 10SM OVC018 M01/M03 A2992 RMK AO2 T10071034
KSUW 260355Z AUTO 27003KT 10SM OVC016 M01/M03 A2992 RMK AO2 T10071035
KSUW 260335Z AUTO 28004KT 10SM OVC016 M01/M03 A2992 RMK AO2 T10061035
KSUW 260315Z AUTO 28006KT 10SM OVC016 00/M03 A2992 RMK AO2 T10051035
KSUW 260255Z AUTO 28005KT 10SM OVC016 00/M03 A2992 RMK AO2 T10051033
KSUW 260235Z AUTO 30007KT 10SM OVC016 00/M03 A2992 RMK AO2 T10051032
KSUW 260215Z AUTO 31008KT 10SM OVC016 00/M03 A2992 RMK AO2 T10021031
KSUW 260155Z AUTO 33006KT 10SM OVC018 00/M03 A2992 RMK AO2 T10021030
KSUW 260135Z AUTO 33006KT 10SM OVC018 00/M03 A2992 RMK AO2 T10011029
KSUW 260115Z AUTO 00000KT 10SM OVC018 00/M03 A2992 RMK AO2 T10031030
KSUW 260055Z AUTO 33003KT 10SM OVC018 00/M03 A2991 RMK AO2 T00001031
KSUW 260035Z AUTO 34005KT 10SM BKN018 00/M03 A2991 RMK AO2 T00001031
KSUW 260015Z AUTO 31007KT 10SM BKN018 M01/M03 A2992 RMK AO2 T10071035
KSUW 252355Z AUTO 32007KT 10SM OVC020 00/M03 A2991 RMK AO2 T00001032 10015 21006
KSUW 252335Z AUTO 31005KT 10SM SCT020 00/M03 A2991 RMK AO2 T10051035
KSUW 252315Z AUTO 30005KT 10SM SCT044 00/M03 A2991 RMK AO2 T00001031
KSUW 252255Z AUTO 30005KT 10SM OVC046 01/M03 A2991 RMK AO2 T00091027
KSUW 252235Z AUTO 30004KT 10SM OVC046 01/M02 A2991 RMK AO2 T00081025
KSUW 252215Z AUTO 30004KT 10SM OVC046 01/M02 A2991 RMK AO2 T00101025
KSUW 252155Z AUTO 30006KT 10SM OVC046 01/M02 A2991 RMK AO2 T00101024
KSUW 252135Z AUTO 30007KT 10SM OVC046 01/M02 A2991 RMK AO2 T00111025
KSUW 252115Z AUTO 30006KT 10SM OVC048 01/M02 A2991 RMK AO2 T00141025
KSUW 252055Z AUTO 31007KT 10SM OVC048 01/M02 A2991 RMK AO2 T00131024
KSUW 252035Z AUTO 30007KT 10SM SCT022 SCT042 OVC050 02/M02 A2991 RMK AO2 T00151023
KSUW 252015Z AUTO 31006KT 10SM SCT022 SCT042 OVC050 02/M02 A2991 RMK AO2 T00151024
KSUW 251955Z AUTO 29006KT 10SM SCT022 OVC050 01/M02 A2991 RMK AO2 T00131024
KSUW 251935Z AUTO 32006KT 10SM SCT033 OVC050 01/M02 A2991 RMK AO2 T00101025
KSUW 251915Z AUTO 32005KT 10SM SCT025 BKN033 OVC050 01/M03 A2992 RMK AO2 T00101029
KSUW 251855Z AUTO 32006KT 10SM BKN025 OVC033 01/M03 A2992 RMK AO2 T00081028
KSUW 251835Z AUTO 34005KT 10SM SCT025 OVC032 01/M03 A2993 RMK AO2 T00071031
KSUW 251815Z AUTO 33006KT 10SM OVC032 01/M03 A2994 RMK AO2 T00051031
KSUW 251755Z AUTO 34005KT 10SM OVC032 00/M03 A2994 RMK AO2 T00041031 10004 21013
KSUW 251735Z AUTO 34006KT 10SM OVC032 00/M03 A2994 RMK AO2 T00011032
KSUW 251715Z AUTO 34008KT 10SM OVC032 00/M03 A2994 RMK AO2 T00001032
KSUW 251655Z AUTO 34006KT 10SM OVC032 00/M03 A2994 RMK AO2 T00001032
KSUW 251635Z AUTO 33007KT 10SM OVC030 00/M03 A2994 RMK AO2 T00001030
KSUW 251615Z AUTO 33005KT 10SM OVC026 00/M03 A2994 RMK AO2 T10021031
KSUW 251555Z AUTO 33004KT 10SM OVC026 00/M03 A2994 RMK AO2 T10051032
KSUW 251535Z AUTO 34004KT 10SM OVC026 M01/M03 A2994 RMK AO2 T10071035
KSUW 251515Z AUTO 34007KT 10SM OVC026 M01/M03 A2994 RMK AO2 T10101035
KSUW 251455Z AUTO 35004KT 10SM OVC028 M01/M03 A2994 RMK AO2 T10081034
KSUW 251435Z AUTO 32003KT 10SM OVC028 M01/M03 A2994 RMK AO2 T10131032
KSUW 251415Z AUTO 34003KT 10SM OVC028 M01/M03 A2994 RMK AO2 T10121035
KSUW 251355Z AUTO 33006KT 10SM SCT014 BKN023 OVC030 M01/M03 A2994 RMK AO2 T10121035
KSUW 251335Z AUTO 34005KT 10SM SCT015 OVC023 M01/M03 A2994 RMK AO2 T10121033
KSUW 251315Z AUTO 34003KT 10SM BKN015 OVC021 M01/M03 A2994 RMK AO2 T10121033
KSUW 251255Z AUTO 32004KT 10SM BKN017 OVC025 M01/M03 A2994 RMK AO2 T10121031
KSUW 251235Z AUTO 33005KT 10SM OVC025 M01/M03 A2994 RMK AO2 T10121031
KSUW 251215Z AUTO 34004KT 10SM SCT012 OVC028 M01/M03 A2994 RMK AO2 T10121031
KSUW 251155Z AUTO 34005KT 10SM BKN012 BKN017 OVC028 M01/M03 A2994 RMK AO2 70002 T10121031 11010 21016
KSUW 251135Z AUTO 34005KT 10SM BKN010 BKN017 OVC026 M01/M03 A2994 RMK AO2 T10131031
KSUW 251115Z AUTO 34005KT 10SM OVC010 M01/M03 A2994 RMK AO2 T10131028
KSUW 251055Z AUTO 34004KT 10SM OVC010 M01/M02 A2994 RMK AO2 T10151025
KSUW 251035Z AUTO 34004KT 2 1/2SM -SN OVC010 M01/M02 A2994 RMK AO2 T10151021
KSUW 251015Z AUTO 35003KT 2SM -SN OVC010 M01/M02 A2994 RMK AO2 T10151023
KSUW 250955Z AUTO 34005KT 3SM UP BKN012 OVC036 M01/M03 A2994 RMK AO2 T10151027
KSUW 250935Z AUTO 34006KT 5SM BR OVC010 M01/M03 A2994 RMK AO2 T10121028
KSUW 250915Z AUTO 34006KT 10SM OVC010 M01/M03 A2994 RMK AO2 T10131030
KSUW 250855Z AUTO 34007KT 10SM OVC010 M01/M03 A2995 RMK AO2 T10121028
KSUW 250835Z AUTO 34006KT 10SM OVC010 M01/M03 A2995 RMK AO2 T10131028
KSUW 250815Z AUTO 34006KT 10SM OVC010 M01/M03 A2995 RMK AO2 T10151028
KSUW 250755Z AUTO 35006KT 4SM UP OVC008 M01/M02 A2995 RMK AO2 T10151025
KSUW 250735Z AUTO 34007KT 3SM UP OVC008 M01/M02 A2995 RMK AO2 T10151025
KSUW 250715Z AUTO 35004KT 4SM -SN OVC008 M01/M03 A2996 RMK AO2 T10131026
KSUW 250655Z AUTO 35007KT 7SM UP OVC010 M01/M03 A2996 RMK AO2 T10121027
KSUW 250635Z AUTO 34008KT 10SM OVC010 M01/M03 A2997 RMK AO2 T10101026
KSUW 250615Z AUTO 34005KT 10SM OVC010 M01/M03 A2997 RMK AO2 T10101027
KSUW 250555Z AUTO 35006KT 10SM OVC010 M01/M03 A2998 RMK AO2 T10111028 10000 21012 400001030
KSUW 250535Z AUTO 34007KT 10SM OVC010 M01/M03 A2998 RMK AO2 T10111028
KSUW 250515Z AUTO 36007KT 10SM OVC012 00/M02 A2998 RMK AO2 T10051022
KSUW 250455Z AUTO 36005KT 10SM OVC012 00/M02 A2998 RMK AO2 T10051021
KSUW 250435Z AUTO 36005KT 10SM OVC012 00/M02 A2998 RMK AO2 T10051021
KSUW 250415Z AUTO 02005KT 10SM OVC012 00/M02 A2999 RMK AO2 T10051025
KSUW 250355Z AUTO 01005KT 10SM OVC012 00/M02 A2999 RMK AO2 T10051024
KSUW 250335Z AUTO 36004KT 10SM OVC014 00/M02 A2999 RMK AO2 T10051024
KSUW 250315Z AUTO 01005KT 10SM OVC014 00/M02 A2999 RMK AO2 T10051022
KSUW 250255Z AUTO 36004KT 10SM UP OVC012 00/M02 A2999 RMK AO2 T10051017
KSUW 250235Z AUTO 36004KT 7SM UP OVC012 00/M01 A3000 RMK AO2 T10021015
KSUW 250215Z AUTO 01005KT 10SM UP OVC012 00/M01 A3000 RMK AO2 T10021015
KSUW 250155Z AUTO 01005KT 5SM -SN OVC012 00/M01 A3001 RMK AO2 T10011013
KSUW 250135Z AUTO 02004KT 5SM -SN OVC012 00/M01 A3001 RMK AO2 T00001014
KSUW 250115Z AUTO 01004KT 10SM OVC012 00/M01 A3001 RMK AO2 T00001011
KSUW 250055Z AUTO 01003KT 7SM -SN OVC012 00/M01 A3001 RMK AO2 T00001007
KSUW 250035Z AUTO 01003KT 7SM OVC012 00/00 A3001 RMK AO2 T00001005
KSUW 250015Z AUTO 01003KT 10SM -SN OVC012 00/00 A3002 RMK AO2 T10011004
KSUW 242355Z AUTO 01003KT 2 1/2SM -SN SCT005 OVC012 00/00 A3002 RMK AO2 VIS 1 3/4V3 T10011003 10000 21005
KSUW 242335Z AUTO 02004KT 3SM UP SCT005 OVC012 00/00 A3002 RMK AO2 T10011005
KSUW 242315Z AUTO 03005KT 2SM -SN BKN007 OVC012 00/00 A3002 RMK AO2 T00001005
KSUW 242255Z AUTO 03007KT 1 3/4SM UP OVC008 00/00 A3002 RMK AO2 T00001005
KSUW 242235Z AUTO 03008KT 4SM -SN OVC008 00/M01 A3002 RMK AO2 T00001008
KSUW 242215Z AUTO 03008KT 10SM OVC006 00/M01 A3002 RMK AO2 T00001007
KSUW 242155Z AUTO 03008KT 10SM OVC006 00/M01 A3002 RMK AO2 T00001006
KSUW 242135Z AUTO 02008KT 10SM OVC004 00/00 A3002 RMK AO2 T00001005